sensor_id;sensor_type;location;lat;lon;timestamp;temperature;humidity
36498;DHT22;22513;51.222;6.480;2022-08-21T00:02:17;15.10;99.90
36498;DHT22;22513;51.222;6.480;2022-08-21T00:04:43;15.10;99.90
36498;DHT22;22513;51.222;6.480;2022-08-21T00:07:08;15.10;99.90
36498;DHT22;22513;51.222;6.480;2022-08-21T00:09:34;15.10;99.90
36498;DHT22;22513;51.222;6.480;2022-08-21T00:12:00;15.00;99.90
36498;DHT22;22513;51.222;6.480;2022-08-21T00:14:25;15.10;99.90
36498;DHT22;22513;51.222;6.480;2022-08-21T00:16:51;15.00;99.90
36498;DHT22;22513;51.222;6.480;2022-08-21T00:19:16;15.00;99.90
36498;DHT22;22513;51.222;6.480;2022-08-21T00:21:42;15.00;99.90
36498;DHT22;22513;51.222;6.480;2022-08-21T00:24:08;15.00;99.90
36498;DHT22;22513;51.222;6.480;2022-08-21T00:26:34;15.00;99.90
36498;DHT22;22513;51.222;6.480;2022-08-21T00:29:00;14.90;99.90
36498;DHT22;22513;51.222;6.480;2022-08-21T00:31:25;14.90;99.90
36498;DHT22;22513;51.222;6.480;2022-08-21T00:33:51;14.90;99.90
36498;DHT22;22513;51.222;6.480;2022-08-21T00:36:17;14.90;99.90
36498;DHT22;22513;51.222;6.480;2022-08-21T00:38:42;14.80;99.90
36498;DHT22;22513;51.222;6.480;2022-08-21T00:41:10;14.70;99.90
36498;DHT22;22513;51.222;6.480;2022-08-21T00:43:37;14.70;99.90
36498;DHT22;22513;51.222;6.480;2022-08-21T00:46:04;14.60;99.90
36498;DHT22;22513;51.222;6.480;2022-08-21T00:48:30;14.60;99.90
36498;DHT22;22513;51.222;6.480;2022-08-21T00:53:24;14.60;99.90
36498;DHT22;22513;51.222;6.480;2022-08-21T00:55:51;14.50;99.90
36498;DHT22;22513;51.222;6.480;2022-08-21T00:58:17;14.50;99.90
36498;DHT22;22513;51.222;6.480;2022-08-21T01:00:46;14.40;99.90
36498;DHT22;22513;51.222;6.480;2022-08-21T01:03:16;14.30;99.90
36498;DHT22;22513;51.222;6.480;2022-08-21T01:05:43;14.30;99.90
36498;DHT22;22513;51.222;6.480;2022-08-21T01:08:10;14.30;99.90
36498;DHT22;22513;51.222;6.480;2022-08-21T01:10:37;14.20;99.90
36498;DHT22;22513;51.222;6.480;2022-08-21T01:13:04;14.20;99.90
36498;DHT22;22513;51.222;6.480;2022-08-21T01:15:39;14.20;99.90
36498;DHT22;22513;51.222;6.480;2022-08-21T01:18:07;14.20;99.90
36498;DHT22;22513;51.222;6.480;2022-08-21T01:20:34;14.20;99.90
36498;DHT22;22513;51.222;6.480;2022-08-21T01:23:02;14.20;99.90
36498;DHT22;22513;51.222;6.480;2022-08-21T01:25:29;14.20;99.90
36498;DHT22;22513;51.222;6.480;2022-08-21T01:27:55;14.20;99.90
36498;DHT22;22513;51.222;6.480;2022-08-21T01:30:24;14.20;99.90
36498;DHT22;22513;51.222;6.480;2022-08-21T01:32:50;14.10;99.90
36498;DHT22;22513;51.222;6.480;2022-08-21T01:35:18;14.10;99.90
36498;DHT22;22513;51.222;6.480;2022-08-21T01:37:44;14.10;99.90
36498;DHT22;22513;51.222;6.480;2022-08-21T01:40:11;14.10;99.90
36498;DHT22;22513;51.222;6.480;2022-08-21T01:42:38;14.10;99.90
36498;DHT22;22513;51.222;6.480;2022-08-21T01:45:05;14.10;99.90
36498;DHT22;22513;51.222;6.480;2022-08-21T01:47:32;14.10;99.90
36498;DHT22;22513;51.222;6.480;2022-08-21T01:49:58;14.10;99.90
36498;DHT22;22513;51.222;6.480;2022-08-21T01:52:24;14.10;99.90
36498;DHT22;22513;51.222;6.480;2022-08-21T01:54:50;14.00;99.90
36498;DHT22;22513;51.222;6.480;2022-08-21T01:57:15;14.00;99.90
36498;DHT22;22513;51.222;6.480;2022-08-21T01:59:41;14.00;99.90
36498;DHT22;22513;51.222;6.480;2022-08-21T02:02:07;14.00;99.90
36498;DHT22;22513;51.222;6.480;2022-08-21T02:04:33;14.00;99.90
36498;DHT22;22513;51.222;6.480;2022-08-21T02:07:00;13.90;99.90
36498;DHT22;22513;51.222;6.480;2022-08-21T02:09:26;13.90;99.90
36498;DHT22;22513;51.222;6.480;2022-08-21T02:11:51;13.90;99.90
36498;DHT22;22513;51.222;6.480;2022-08-21T02:14:17;13.90;99.90
36498;DHT22;22513;51.222;6.480;2022-08-21T02:16:44;13.90;99.90
36498;DHT22;22513;51.222;6.480;2022-08-21T02:19:12;13.90;99.90
36498;DHT22;22513;51.222;6.480;2022-08-21T02:21:38;13.90;99.90
36498;DHT22;22513;51.222;6.480;2022-08-21T02:24:04;13.80;99.90
36498;DHT22;22513;51.222;6.480;2022-08-21T02:26:29;13.80;99.90
36498;DHT22;22513;51.222;6.480;2022-08-21T02:28:55;13.80;99.90
36498;DHT22;22513;51.222;6.480;2022-08-21T02:31:21;13.80;99.90
36498;DHT22;22513;51.222;6.480;2022-08-21T02:33:46;13.90;99.90
36498;DHT22;22513;51.222;6.480;2022-08-21T02:36:12;13.80;99.90
36498;DHT22;22513;51.222;6.480;2022-08-21T02:38:40;13.80;99.90
36498;DHT22;22513;51.222;6.480;2022-08-21T02:41:09;13.80;99.90
36498;DHT22;22513;51.222;6.480;2022-08-21T02:43:34;13.80;99.90
36498;DHT22;22513;51.222;6.480;2022-08-21T02:46:02;13.80;99.90
36498;DHT22;22513;51.222;6.480;2022-08-21T02:48:30;13.70;99.90
36498;DHT22;22513;51.222;6.480;2022-08-21T02:51:03;13.70;99.90
36498;DHT22;22513;51.222;6.480;2022-08-21T02:53:30;13.60;99.90
36498;DHT22;22513;51.222;6.480;2022-08-21T02:55:58;13.60;99.90
36498;DHT22;22513;51.222;6.480;2022-08-21T02:58:29;13.60;99.90
36498;DHT22;22513;51.222;6.480;2022-08-21T03:00:56;13.60;99.90
36498;DHT22;22513;51.222;6.480;2022-08-21T03:03:24;13.50;99.90
36498;DHT22;22513;51.222;6.480;2022-08-21T03:05:50;13.50;99.90
36498;DHT22;22513;51.222;6.480;2022-08-21T03:08:16;13.50;99.90
36498;DHT22;22513;51.222;6.480;2022-08-21T03:10:48;13.50;99.90
36498;DHT22;22513;51.222;6.480;2022-08-21T03:13:14;13.40;99.90
36498;DHT22;22513;51.222;6.480;2022-08-21T03:15:41;13.40;99.90
36498;DHT22;22513;51.222;6.480;2022-08-21T03:18:08;13.40;99.90
36498;DHT22;22513;51.222;6.480;2022-08-21T03:20:35;13.40;99.90
36498;DHT22;22513;51.222;6.480;2022-08-21T03:23:05;13.40;99.90
36498;DHT22;22513;51.222;6.480;2022-08-21T03:25:31;13.50;99.90
36498;DHT22;22513;51.222;6.480;2022-08-21T03:27:58;13.40;99.90
36498;DHT22;22513;51.222;6.480;2022-08-21T03:30:24;13.50;99.90
36498;DHT22;22513;51.222;6.480;2022-08-21T03:32:50;13.50;99.90
36498;DHT22;22513;51.222;6.480;2022-08-21T03:35:17;13.60;99.90
36498;DHT22;22513;51.222;6.480;2022-08-21T03:37:43;13.60;99.90
36498;DHT22;22513;51.222;6.480;2022-08-21T03:40:11;13.60;99.90
36498;DHT22;22513;51.222;6.480;2022-08-21T03:42:37;13.60;99.90
36498;DHT22;22513;51.222;6.480;2022-08-21T03:45:04;13.60;99.90
36498;DHT22;22513;51.222;6.480;2022-08-21T03:47:29;13.60;99.90
36498;DHT22;22513;51.222;6.480;2022-08-21T03:49:55;13.60;99.90
36498;DHT22;22513;51.222;6.480;2022-08-21T03:52:21;13.50;99.90
36498;DHT22;22513;51.222;6.480;2022-08-21T03:54:47;13.60;99.90
36498;DHT22;22513;51.222;6.480;2022-08-21T03:57:13;13.60;99.90
36498;DHT22;22513;51.222;6.480;2022-08-21T03:59:39;13.60;99.90
36498;DHT22;22513;51.222;6.480;2022-08-21T04:02:06;13.60;99.90
36498;DHT22;22513;51.222;6.480;2022-08-21T04:04:33;13.60;99.90
36498;DHT22;22513;51.222;6.480;2022-08-21T04:06:59;13.60;99.90
36498;DHT22;22513;51.222;6.480;2022-08-21T04:09:25;13.50;99.90
36498;DHT22;22513;51.222;6.480;2022-08-21T04:11:51;13.50;99.90
36498;DHT22;22513;51.222;6.480;2022-08-21T04:14:17;13.50;99.90
36498;DHT22;22513;51.222;6.480;2022-08-21T04:16:43;13.60;99.90
36498;DHT22;22513;51.222;6.480;2022-08-21T04:19:10;13.60;99.90
36498;DHT22;22513;51.222;6.480;2022-08-21T04:21:37;13.60;99.90
36498;DHT22;22513;51.222;6.480;2022-08-21T04:24:04;13.50;99.90
36498;DHT22;22513;51.222;6.480;2022-08-21T04:26:30;13.60;99.90
36498;DHT22;22513;51.222;6.480;2022-08-21T04:28:57;13.60;99.90
36498;DHT22;22513;51.222;6.480;2022-08-21T04:31:23;13.50;99.90
36498;DHT22;22513;51.222;6.480;2022-08-21T04:33:49;13.50;99.90
36498;DHT22;22513;51.222;6.480;2022-08-21T04:36:15;13.50;99.90
36498;DHT22;22513;51.222;6.480;2022-08-21T04:38:41;13.50;99.90
36498;DHT22;22513;51.222;6.480;2022-08-21T04:41:07;13.60;99.90
36498;DHT22;22513;51.222;6.480;2022-08-21T04:43:32;13.60;99.90
36498;DHT22;22513;51.222;6.480;2022-08-21T04:45:58;13.60;99.90
36498;DHT22;22513;51.222;6.480;2022-08-21T04:48:25;13.70;99.90
36498;DHT22;22513;51.222;6.480;2022-08-21T04:56:47;13.90;99.90
36498;DHT22;22513;51.222;6.480;2022-08-21T04:59:17;14.10;99.90
36498;DHT22;22513;51.222;6.480;2022-08-21T05:01:44;14.20;99.90
36498;DHT22;22513;51.222;6.480;2022-08-21T05:04:14;14.50;99.90
36498;DHT22;22513;51.222;6.480;2022-08-21T05:06:44;14.70;99.90
36498;DHT22;22513;51.222;6.480;2022-08-21T05:09:14;15.10;99.90
36498;DHT22;22513;51.222;6.480;2022-08-21T05:11:40;15.50;99.90
36498;DHT22;22513;51.222;6.480;2022-08-21T05:14:07;16.00;99.90
36498;DHT22;22513;51.222;6.480;2022-08-21T05:16:33;16.40;99.90
36498;DHT22;22513;51.222;6.480;2022-08-21T05:18:58;16.90;99.90
36498;DHT22;22513;51.222;6.480;2022-08-21T05:21:24;17.40;99.90
36498;DHT22;22513;51.222;6.480;2022-08-21T05:23:49;17.90;99.90
36498;DHT22;22513;51.222;6.480;2022-08-21T05:26:15;18.40;99.90
36498;DHT22;22513;51.222;6.480;2022-08-21T05:28:41;18.90;99.90
36498;DHT22;22513;51.222;6.480;2022-08-21T05:31:06;19.30;99.90
36498;DHT22;22513;51.222;6.480;2022-08-21T05:33:32;19.80;99.90
36498;DHT22;22513;51.222;6.480;2022-08-21T05:35:57;20.40;99.90
36498;DHT22;22513;51.222;6.480;2022-08-21T05:38:24;21.10;99.90
36498;DHT22;22513;51.222;6.480;2022-08-21T05:40:52;21.70;99.90
36498;DHT22;22513;51.222;6.480;2022-08-21T05:43:18;22.30;99.90
36498;DHT22;22513;51.222;6.480;2022-08-21T05:45:44;22.90;99.90
36498;DHT22;22513;51.222;6.480;2022-08-21T05:48:13;23.50;99.90
36498;DHT22;22513;51.222;6.480;2022-08-21T05:50:39;24.00;99.90
36498;DHT22;22513;51.222;6.480;2022-08-21T05:53:06;24.60;99.90
36498;DHT22;22513;51.222;6.480;2022-08-21T05:55:31;25.00;99.90
36498;DHT22;22513;51.222;6.480;2022-08-21T05:57:57;25.50;99.60
36498;DHT22;22513;51.222;6.480;2022-08-21T06:00:23;25.90;98.20
36498;DHT22;22513;51.222;6.480;2022-08-21T06:02:49;26.40;97.30
36498;DHT22;22513;51.222;6.480;2022-08-21T06:05:16;26.70;96.60
36498;DHT22;22513;51.222;6.480;2022-08-21T06:07:41;27.20;95.00
36498;DHT22;22513;51.222;6.480;2022-08-21T06:10:07;27.60;93.70
36498;DHT22;22513;51.222;6.480;2022-08-21T06:12:33;27.80;92.30
36498;DHT22;22513;51.222;6.480;2022-08-21T06:14:58;28.00;91.80
36498;DHT22;22513;51.222;6.480;2022-08-21T06:17:24;28.30;90.60
36498;DHT22;22513;51.222;6.480;2022-08-21T06:19:53;28.60;89.50
36498;DHT22;22513;51.222;6.480;2022-08-21T06:22:20;28.90;88.80
36498;DHT22;22513;51.222;6.480;2022-08-21T06:24:46;29.20;86.40
36498;DHT22;22513;51.222;6.480;2022-08-21T06:27:12;29.50;84.80
36498;DHT22;22513;51.222;6.480;2022-08-21T06:29:38;29.90;80.80
36498;DHT22;22513;51.222;6.480;2022-08-21T06:32:04;29.90;80.90
36498;DHT22;22513;51.222;6.480;2022-08-21T06:34:36;30.30;78.40
36498;DHT22;22513;51.222;6.480;2022-08-21T06:37:02;30.60;77.20
36498;DHT22;22513;51.222;6.480;2022-08-21T06:39:27;30.90;75.80
36498;DHT22;22513;51.222;6.480;2022-08-21T06:41:53;31.30;74.70
36498;DHT22;22513;51.222;6.480;2022-08-21T06:44:20;31.60;72.70
36498;DHT22;22513;51.222;6.480;2022-08-21T06:46:45;32.10;69.30
36498;DHT22;22513;51.222;6.480;2022-08-21T06:49:11;32.00;68.00
36498;DHT22;22513;51.222;6.480;2022-08-21T06:51:38;32.30;66.00
36498;DHT22;22513;51.222;6.480;2022-08-21T06:54:04;32.60;64.30
36498;DHT22;22513;51.222;6.480;2022-08-21T06:56:29;32.70;63.60
36498;DHT22;22513;51.222;6.480;2022-08-21T06:58:55;33.00;62.00
36498;DHT22;22513;51.222;6.480;2022-08-21T07:01:24;33.00;60.20
36498;DHT22;22513;51.222;6.480;2022-08-21T07:03:50;33.00;60.30
36498;DHT22;22513;51.222;6.480;2022-08-21T07:06:15;33.20;59.20
36498;DHT22;22513;51.222;6.480;2022-08-21T07:08:42;33.20;58.10
36498;DHT22;22513;51.222;6.480;2022-08-21T07:11:12;33.10;57.30
36498;DHT22;22513;51.222;6.480;2022-08-21T07:13:39;33.10;56.70
36498;DHT22;22513;51.222;6.480;2022-08-21T07:16:04;33.10;55.90
36498;DHT22;22513;51.222;6.480;2022-08-21T07:18:30;32.90;55.70
36498;DHT22;22513;51.222;6.480;2022-08-21T07:20:56;32.40;55.30
36498;DHT22;22513;51.222;6.480;2022-08-21T07:23:26;32.10;56.00
36498;DHT22;22513;51.222;6.480;2022-08-21T07:25:53;31.60;56.60
36498;DHT22;22513;51.222;6.480;2022-08-21T07:28:19;31.50;56.00
36498;DHT22;22513;51.222;6.480;2022-08-21T07:30:45;31.40;56.00
36498;DHT22;22513;51.222;6.480;2022-08-21T07:33:11;31.30;56.40
36498;DHT22;22513;51.222;6.480;2022-08-21T07:35:37;31.20;56.30
36498;DHT22;22513;51.222;6.480;2022-08-21T07:38:02;31.50;56.30
36498;DHT22;22513;51.222;6.480;2022-08-21T07:40:29;31.80;56.40
36498;DHT22;22513;51.222;6.480;2022-08-21T07:42:55;31.90;55.80
36498;DHT22;22513;51.222;6.480;2022-08-21T07:45:22;32.20;56.40
36498;DHT22;22513;51.222;6.480;2022-08-21T07:47:49;32.50;55.80
36498;DHT22;22513;51.222;6.480;2022-08-21T07:50:16;33.00;55.80
36498;DHT22;22513;51.222;6.480;2022-08-21T07:52:42;33.20;52.70
36498;DHT22;22513;51.222;6.480;2022-08-21T07:55:14;33.40;52.00
36498;DHT22;22513;51.222;6.480;2022-08-21T07:57:41;33.50;52.10
36498;DHT22;22513;51.222;6.480;2022-08-21T08:00:10;33.40;52.00
36498;DHT22;22513;51.222;6.480;2022-08-21T08:02:36;33.30;51.00
36498;DHT22;22513;51.222;6.480;2022-08-21T08:05:08;33.20;51.00
36498;DHT22;22513;51.222;6.480;2022-08-21T08:07:35;32.80;51.70
36498;DHT22;22513;51.222;6.480;2022-08-21T08:10:02;32.80;52.30
36498;DHT22;22513;51.222;6.480;2022-08-21T08:12:27;32.70;52.40
36498;DHT22;22513;51.222;6.480;2022-08-21T08:14:58;32.80;52.10
36498;DHT22;22513;51.222;6.480;2022-08-21T08:17:24;33.00;51.90
36498;DHT22;22513;51.222;6.480;2022-08-21T08:19:50;33.20;51.60
36498;DHT22;22513;51.222;6.480;2022-08-21T08:22:17;33.10;51.20
36498;DHT22;22513;51.222;6.480;2022-08-21T08:24:45;32.80;51.00
36498;DHT22;22513;51.222;6.480;2022-08-21T08:27:11;32.10;51.90
36498;DHT22;22513;51.222;6.480;2022-08-21T08:32:06;31.70;52.70
36498;DHT22;22513;51.222;6.480;2022-08-21T08:34:36;31.90;52.50
36498;DHT22;22513;51.222;6.480;2022-08-21T08:37:03;32.10;50.80
36498;DHT22;22513;51.222;6.480;2022-08-21T08:39:29;31.60;51.40
36498;DHT22;22513;51.222;6.480;2022-08-21T08:44:30;30.00;52.80
36498;DHT22;22513;51.222;6.480;2022-08-21T08:46:57;29.20;53.80
36498;DHT22;22513;51.222;6.480;2022-08-21T08:49:37;28.50;54.80
36498;DHT22;22513;51.222;6.480;2022-08-21T08:52:17;27.70;56.50
36498;DHT22;22513;51.222;6.480;2022-08-21T08:54:51;27.00;57.80
36498;DHT22;22513;51.222;6.480;2022-08-21T08:57:21;26.40;58.20
36498;DHT22;22513;51.222;6.480;2022-08-21T08:59:53;25.80;59.90
36498;DHT22;22513;51.222;6.480;2022-08-21T09:02:19;25.20;62.40
36498;DHT22;22513;51.222;6.480;2022-08-21T09:04:47;24.70;64.30
36498;DHT22;22513;51.222;6.480;2022-08-21T09:27:07;23.20;69.80
36498;DHT22;22513;51.222;6.480;2022-08-21T09:29:36;23.10;71.40
36498;DHT22;22513;51.222;6.480;2022-08-21T09:32:20;23.10;71.60
36498;DHT22;22513;51.222;6.480;2022-08-21T09:37:25;23.30;72.50
36498;DHT22;22513;51.222;6.480;2022-08-21T09:39:51;23.50;71.80
36498;DHT22;22513;51.222;6.480;2022-08-21T09:42:26;23.60;71.90
36498;DHT22;22513;51.222;6.480;2022-08-21T09:45:09;23.60;72.50
36498;DHT22;22513;51.222;6.480;2022-08-21T09:47:36;23.60;72.00
36498;DHT22;22513;51.222;6.480;2022-08-21T09:50:15;23.60;72.10
36498;DHT22;22513;51.222;6.480;2022-08-21T09:52:48;23.70;71.90
36498;DHT22;22513;51.222;6.480;2022-08-21T09:55:22;23.80;71.60
36498;DHT22;22513;51.222;6.480;2022-08-21T09:58:07;23.90;71.40
36498;DHT22;22513;51.222;6.480;2022-08-21T10:00:34;23.90;71.30
36498;DHT22;22513;51.222;6.480;2022-08-21T10:03:20;24.00;71.30
36498;DHT22;22513;51.222;6.480;2022-08-21T10:06:07;24.00;70.80
36498;DHT22;22513;51.222;6.480;2022-08-21T10:08:37;24.10;70.50
36498;DHT22;22513;51.222;6.480;2022-08-21T10:13:46;24.40;70.30
36498;DHT22;22513;51.222;6.480;2022-08-21T10:16:21;24.40;69.80
36498;DHT22;22513;51.222;6.480;2022-08-21T10:24:33;24.70;69.00
36498;DHT22;22513;51.222;6.480;2022-08-21T10:35:18;24.70;67.80
36498;DHT22;22513;51.222;6.480;2022-08-21T10:42:57;24.80;68.60
36498;DHT22;22513;51.222;6.480;2022-08-21T10:49:03;24.90;67.10
36498;DHT22;22513;51.222;6.480;2022-08-21T10:56:43;25.00;68.70
36498;DHT22;22513;51.222;6.480;2022-08-21T11:02:00;25.20;68.40
36498;DHT22;22513;51.222;6.480;2022-08-21T11:04:41;25.40;68.20
36498;DHT22;22513;51.222;6.480;2022-08-21T11:07:12;25.40;67.80
36498;DHT22;22513;51.222;6.480;2022-08-21T11:09:45;25.30;67.80
36498;DHT22;22513;51.222;6.480;2022-08-21T11:12:37;25.30;67.90
36498;DHT22;22513;51.222;6.480;2022-08-21T11:15:24;25.40;67.30
36498;DHT22;22513;51.222;6.480;2022-08-21T11:17:57;25.40;66.70
36498;DHT22;22513;51.222;6.480;2022-08-21T11:20:36;25.40;66.90
36498;DHT22;22513;51.222;6.480;2022-08-21T11:23:21;25.60;67.70
36498;DHT22;22513;51.222;6.480;2022-08-21T11:26:07;25.60;67.40
36498;DHT22;22513;51.222;6.480;2022-08-21T11:28:50;25.50;67.50
36498;DHT22;22513;51.222;6.480;2022-08-21T11:31:38;25.40;68.00
36498;DHT22;22513;51.222;6.480;2022-08-21T11:34:15;25.50;68.00
36498;DHT22;22513;51.222;6.480;2022-08-21T11:42:24;26.00;66.00
36498;DHT22;22513;51.222;6.480;2022-08-21T11:50:18;26.00;66.50
36498;DHT22;22513;51.222;6.480;2022-08-21T11:52:50;25.80;67.20
36498;DHT22;22513;51.222;6.480;2022-08-21T11:55:23;25.80;67.50
36498;DHT22;22513;51.222;6.480;2022-08-21T11:57:55;25.80;68.00
36498;DHT22;22513;51.222;6.480;2022-08-21T12:00:28;25.80;67.70
36498;DHT22;22513;51.222;6.480;2022-08-21T12:02:58;25.80;67.30
36498;DHT22;22513;51.222;6.480;2022-08-21T12:05:34;25.80;67.60
36498;DHT22;22513;51.222;6.480;2022-08-21T12:08:32;25.80;67.00
36498;DHT22;22513;51.222;6.480;2022-08-21T12:11:20;25.80;67.10
36498;DHT22;22513;51.222;6.480;2022-08-21T12:16:45;26.00;66.80
36498;DHT22;22513;51.222;6.480;2022-08-21T12:19:14;26.10;66.80
36498;DHT22;22513;51.222;6.480;2022-08-21T12:24:44;26.10;65.80
36498;DHT22;22513;51.222;6.480;2022-08-21T12:34:51;26.20;65.10
36498;DHT22;22513;51.222;6.480;2022-08-21T12:37:24;26.30;64.60
36498;DHT22;22513;51.222;6.480;2022-08-21T12:39:52;26.40;63.90
36498;DHT22;22513;51.222;6.480;2022-08-21T12:42:29;26.60;63.40
36498;DHT22;22513;51.222;6.480;2022-08-21T12:45:03;26.70;63.10
36498;DHT22;22513;51.222;6.480;2022-08-21T12:47:47;26.70;62.30
36498;DHT22;22513;51.222;6.480;2022-08-21T12:50:21;26.60;62.30
36498;DHT22;22513;51.222;6.480;2022-08-21T12:55:54;26.50;62.30
36498;DHT22;22513;51.222;6.480;2022-08-21T12:58:28;26.40;62.30
36498;DHT22;22513;51.222;6.480;2022-08-21T13:03:27;26.30;62.10
36498;DHT22;22513;51.222;6.480;2022-08-21T13:05:53;26.20;62.60
36498;DHT22;22513;51.222;6.480;2022-08-21T13:08:21;26.00;63.30
36498;DHT22;22513;51.222;6.480;2022-08-21T13:10:57;25.80;64.40
36498;DHT22;22513;51.222;6.480;2022-08-21T13:13:24;25.60;65.10
36498;DHT22;22513;51.222;6.480;2022-08-21T13:16:02;25.50;64.80
36498;DHT22;22513;51.222;6.480;2022-08-21T13:18:30;25.40;65.10
36498;DHT22;22513;51.222;6.480;2022-08-21T13:21:11;25.40;66.00
36498;DHT22;22513;51.222;6.480;2022-08-21T13:23:37;25.50;66.00
36498;DHT22;22513;51.222;6.480;2022-08-21T13:26:14;25.50;66.20
36498;DHT22;22513;51.222;6.480;2022-08-21T13:28:40;25.50;66.60
36498;DHT22;22513;51.222;6.480;2022-08-21T13:31:07;25.50;66.50
36498;DHT22;22513;51.222;6.480;2022-08-21T13:33:36;25.50;66.50
36498;DHT22;22513;51.222;6.480;2022-08-21T13:36:11;25.40;66.40
36498;DHT22;22513;51.222;6.480;2022-08-21T13:38:40;25.40;66.70
36498;DHT22;22513;51.222;6.480;2022-08-21T13:41:23;25.40;66.20
36498;DHT22;22513;51.222;6.480;2022-08-21T13:44:03;25.40;66.00
36498;DHT22;22513;51.222;6.480;2022-08-21T13:46:32;25.50;65.60
36498;DHT22;22513;51.222;6.480;2022-08-21T13:49:00;25.40;65.60
36498;DHT22;22513;51.222;6.480;2022-08-21T13:51:29;25.40;65.20
36498;DHT22;22513;51.222;6.480;2022-08-21T13:53:55;25.40;66.30
36498;DHT22;22513;51.222;6.480;2022-08-21T13:56:30;25.50;64.00
36498;DHT22;22513;51.222;6.480;2022-08-21T13:58:57;25.60;63.90
36498;DHT22;22513;51.222;6.480;2022-08-21T14:01:37;25.60;64.20
36498;DHT22;22513;51.222;6.480;2022-08-21T14:04:24;25.70;64.60
36498;DHT22;22513;51.222;6.480;2022-08-21T14:06:51;25.90;64.60
36498;DHT22;22513;51.222;6.480;2022-08-21T14:09:26;26.00;64.20
36498;DHT22;22513;51.222;6.480;2022-08-21T14:11:54;26.10;63.70
36498;DHT22;22513;51.222;6.480;2022-08-21T14:14:25;26.20;63.00
36498;DHT22;22513;51.222;6.480;2022-08-21T14:17:02;26.20;62.70
36498;DHT22;22513;51.222;6.480;2022-08-21T14:25:09;25.90;62.50
36498;DHT22;22513;51.222;6.480;2022-08-21T14:28:24;25.80;63.00
36498;DHT22;22513;51.222;6.480;2022-08-21T14:32:55;25.70;62.80
36498;DHT22;22513;51.222;6.480;2022-08-21T14:35:21;25.60;62.50
36498;DHT22;22513;51.222;6.480;2022-08-21T14:37:48;25.50;62.30
36498;DHT22;22513;51.222;6.480;2022-08-21T14:40:18;25.40;62.30
36498;DHT22;22513;51.222;6.480;2022-08-21T14:42:45;25.30;61.90
36498;DHT22;22513;51.222;6.480;2022-08-21T14:47:42;25.10;60.60
36498;DHT22;22513;51.222;6.480;2022-08-21T14:50:12;25.00;61.70
36498;DHT22;22513;51.222;6.480;2022-08-21T14:52:39;25.00;63.10
36498;DHT22;22513;51.222;6.480;2022-08-21T14:55:06;25.00;62.60
36498;DHT22;22513;51.222;6.480;2022-08-21T14:57:33;25.00;62.40
36498;DHT22;22513;51.222;6.480;2022-08-21T15:02:26;25.00;61.60
36498;DHT22;22513;51.222;6.480;2022-08-21T15:04:52;24.90;61.00
36498;DHT22;22513;51.222;6.480;2022-08-21T15:07:18;24.80;60.50
36498;DHT22;22513;51.222;6.480;2022-08-21T15:09:43;24.80;61.00
36498;DHT22;22513;51.222;6.480;2022-08-21T15:12:09;24.70;61.50
36498;DHT22;22513;51.222;6.480;2022-08-21T15:14:39;24.70;61.00
36498;DHT22;22513;51.222;6.480;2022-08-21T15:17:09;24.70;62.20
36498;DHT22;22513;51.222;6.480;2022-08-21T15:19:36;24.80;62.20
36498;DHT22;22513;51.222;6.480;2022-08-21T15:22:02;24.80;62.50
36498;DHT22;22513;51.222;6.480;2022-08-21T15:24:28;24.90;62.20
36498;DHT22;22513;51.222;6.480;2022-08-21T15:26:55;25.00;61.80
36498;DHT22;22513;51.222;6.480;2022-08-21T15:29:21;25.00;61.90
36498;DHT22;22513;51.222;6.480;2022-08-21T15:31:53;25.00;62.10
36498;DHT22;22513;51.222;6.480;2022-08-21T15:34:20;25.00;62.10
36498;DHT22;22513;51.222;6.480;2022-08-21T15:36:45;25.10;61.70
36498;DHT22;22513;51.222;6.480;2022-08-21T15:39:11;25.10;61.40
36498;DHT22;22513;51.222;6.480;2022-08-21T15:41:37;25.10;61.10
36498;DHT22;22513;51.222;6.480;2022-08-21T15:44:03;25.10;61.00
36498;DHT22;22513;51.222;6.480;2022-08-21T15:46:28;25.20;60.30
36498;DHT22;22513;51.222;6.480;2022-08-21T15:48:54;25.20;59.70
36498;DHT22;22513;51.222;6.480;2022-08-21T15:51:20;25.20;59.80
36498;DHT22;22513;51.222;6.480;2022-08-21T15:53:45;25.10;60.10
36498;DHT22;22513;51.222;6.480;2022-08-21T15:56:35;25.10;60.00
36498;DHT22;22513;51.222;6.480;2022-08-21T15:59:04;25.10;60.60
36498;DHT22;22513;51.222;6.480;2022-08-21T16:01:31;25.10;60.90
36498;DHT22;22513;51.222;6.480;2022-08-21T16:03:57;25.10;60.40
36498;DHT22;22513;51.222;6.480;2022-08-21T16:06:23;25.10;60.20
36498;DHT22;22513;51.222;6.480;2022-08-21T16:08:48;25.00;60.20
36498;DHT22;22513;51.222;6.480;2022-08-21T16:11:17;24.90;60.20
36498;DHT22;22513;51.222;6.480;2022-08-21T16:13:44;24.80;60.30
36498;DHT22;22513;51.222;6.480;2022-08-21T16:16:13;24.80;60.60
36498;DHT22;22513;51.222;6.480;2022-08-21T16:18:40;24.80;60.70
36498;DHT22;22513;51.222;6.480;2022-08-21T16:21:06;24.80;60.30
36498;DHT22;22513;51.222;6.480;2022-08-21T16:23:33;24.80;60.60
36498;DHT22;22513;51.222;6.480;2022-08-21T16:26:01;24.80;60.80
36498;DHT22;22513;51.222;6.480;2022-08-21T16:28:27;24.80;61.20
36498;DHT22;22513;51.222;6.480;2022-08-21T16:30:53;24.80;61.30
36498;DHT22;22513;51.222;6.480;2022-08-21T16:36:00;24.80;61.00
36498;DHT22;22513;51.222;6.480;2022-08-21T16:38:27;24.80;60.70
36498;DHT22;22513;51.222;6.480;2022-08-21T16:40:53;24.70;61.00
36498;DHT22;22513;51.222;6.480;2022-08-21T16:43:21;24.70;61.40
36498;DHT22;22513;51.222;6.480;2022-08-21T16:45:49;24.80;61.50
36498;DHT22;22513;51.222;6.480;2022-08-21T16:48:15;24.80;62.10
36498;DHT22;22513;51.222;6.480;2022-08-21T16:50:41;24.80;62.40
36498;DHT22;22513;51.222;6.480;2022-08-21T16:53:06;24.60;63.00
36498;DHT22;22513;51.222;6.480;2022-08-21T16:55:34;24.60;63.40
36498;DHT22;22513;51.222;6.480;2022-08-21T16:58:02;24.50;63.70
36498;DHT22;22513;51.222;6.480;2022-08-21T17:00:29;24.50;64.10
36498;DHT22;22513;51.222;6.480;2022-08-21T17:02:55;24.50;63.90
36498;DHT22;22513;51.222;6.480;2022-08-21T17:05:22;24.40;63.90
36498;DHT22;22513;51.222;6.480;2022-08-21T17:07:47;24.40;64.00
36498;DHT22;22513;51.222;6.480;2022-08-21T17:10:14;24.30;64.60
36498;DHT22;22513;51.222;6.480;2022-08-21T17:12:42;24.10;65.20
36498;DHT22;22513;51.222;6.480;2022-08-21T17:15:18;24.00;65.80
36498;DHT22;22513;51.222;6.480;2022-08-21T17:17:44;23.80;66.30
36498;DHT22;22513;51.222;6.480;2022-08-21T17:20:10;23.80;66.80
36498;DHT22;22513;51.222;6.480;2022-08-21T17:22:36;23.70;67.10
36498;DHT22;22513;51.222;6.480;2022-08-21T17:25:02;23.70;66.90
36498;DHT22;22513;51.222;6.480;2022-08-21T17:27:28;23.60;66.80
36498;DHT22;22513;51.222;6.480;2022-08-21T17:29:54;23.60;67.20
36498;DHT22;22513;51.222;6.480;2022-08-21T17:32:20;23.40;67.60
36498;DHT22;22513;51.222;6.480;2022-08-21T17:34:46;23.30;68.00